Time;durP1;ratioP1;P1;durP2;ratioP2;P2;SDS_P1;SDS_P2;PMS_P1;PMS_P2;Temp;Humidity;BMP_temperature;BMP_pressure;BME280_temperature;BME280_humidity;BME280_pressure;Samples;Min_cycle;Max_cycle;Signal;HPM_P1;HPM_P2
2023/10/23 14:32:23;;;;;;;3.23;1.43;;;13.70;76.00;;;;;;5092319;28;20758;-86
2023/10/23 14:34:53;;;;;;;2.03;1.30;;;13.70;76.20;;;;;;5064860;28;20536;-87
2023/10/23 14:37:27;;;;;;;1.60;0.90;;;13.70;76.10;;;;;;5058544;28;20475;-88
2023/10/23 14:39:55;;;;;;;2.57;1.17;;;13.70;75.80;;;;;;5078499;28;20487;-86
2023/10/23 14:42:26;;;;;;;1.90;1.30;;;13.70;76.50;;;;;;5108601;28;20528;-88
2023/10/23 14:44:55;;;;;;;1.63;1.00;;;13.70;76.50;;;;;;5080150;28;20463;-86
2023/10/23 14:47:25;;;;;;;2.13;1.10;;;13.70;76.00;;;;;;5076457;28;20519;-86
2023/10/23 14:50:03;;;;;;;1.70;1.47;;;13.80;76.20;;;;;;5076101;28;20537;-83
2023/10/23 14:52:38;;;;;;;1.57;1.07;;;13.80;76.30;;;;;;5079406;28;20414;-89
2023/10/23 14:55:09;;;;;;;1.30;1.17;;;13.80;76.10;;;;;;5074193;28;20467;-88
2023/10/23 14:57:39;;;;;;;2.40;1.20;;;13.80;76.40;;;;;;5077260;28;20430;-87
2023/10/23 15:00:10;;;;;;;1.97;1.10;;;13.80;76.40;;;;;;5076004;28;20465;-89
2023/10/23 15:02:39;;;;;;;1.60;1.27;;;13.80;76.30;;;;;;5077141;28;20441;-85
2023/10/23 15:05:13;;;;;;;1.60;1.00;;;13.80;76.70;;;;;;5075407;28;20465;-88
2023/10/23 15:07:42;;;;;;;2.23;1.10;;;13.80;76.30;;;;;;5076993;28;20426;-88
2023/10/23 15:10:11;;;;;;;1.70;0.90;;;13.80;76.30;;;;;;5075377;28;20467;-86
2023/10/23 15:12:41;;;;;;;2.53;1.20;;;13.70;76.20;;;;;;5076239;28;20803;-86
2023/10/23 15:15:11;;;;;;;1.63;1.17;;;13.70;76.20;;;;;;5074588;28;20454;-89
2023/10/23 15:17:40;;;;;;;1.30;0.97;;;13.80;76.20;;;;;;5075690;28;20437;-86
2023/10/23 15:20:12;;;;;;;1.73;0.90;;;13.80;76.30;;;;;;5074857;28;20532;-88
2023/10/23 15:22:41;;;;;;;2.27;1.10;;;13.80;76.40;;;;;;5076263;28;20420;-89
2023/10/23 15:25:10;;;;;;;2.33;1.47;;;13.80;76.60;;;;;;5074711;28;20462;-87
2023/10/23 15:27:42;;;;;;;3.10;1.10;;;13.80;76.60;;;;;;5075218;28;20437;-87
2023/10/23 15:30:20;;;;;;;1.37;1.10;;;13.80;76.90;;;;;;5065464;28;20467;-88
2023/10/23 15:32:52;;;;;;;1.70;0.83;;;13.80;76.80;;;;;;5076945;28;20812;-90
2023/10/23 16:07:04;;;;;;;1.80;1.10;;;13.80;77.20;;;;;;5017408;28;20464;-51
2023/10/23 16:09:34;;;;;;;1.50;1.00;;;13.80;77.50;;;;;;5019166;28;20474;-52
2023/10/23 16:12:02;;;;;;;3.23;1.40;;;13.80;77.40;;;;;;5004489;28;20527;-53
2023/10/23 16:14:38;;;;;;;2.57;1.37;;;13.80;77.60;;;;;;4993151;28;20453;-53
2023/10/23 16:17:25;;;;;;;1.30;1.07;;;13.80;77.80;;;;;;5005523;28;21032;-52
2023/10/23 16:19:53;;;;;;;1.73;1.33;;;13.80;78.20;;;;;;5006935;28;21058;-53
2023/10/23 16:22:24;;;;;;;3.40;1.50;;;13.70;77.60;;;;;;5008140;28;20515;-50
2023/10/23 16:24:52;;;;;;;2.60;1.47;;;13.80;78.30;;;;;;5023363;28;21037;-50
2023/10/23 16:27:20;;;;;;;2.63;1.50;;;13.80;77.60;;;;;;5025148;28;20503;-54
2023/10/23 16:29:48;;;;;;;3.40;1.20;;;13.80;77.50;;;;;;5008175;28;20430;-52
2023/10/23 16:32:17;;;;;;;2.10;1.10;;;13.80;78.70;;;;;;5022487;28;20458;-52
2023/10/23 16:34:46;;;;;;;3.73;1.67;;;13.70;78.30;;;;;;5023458;28;20824;-53
2023/10/23 16:37:14;;;;;;;2.27;1.50;;;13.70;78.90;;;;;;5019467;28;20445;-51
2023/10/23 16:39:44;;;;;;;2.10;1.47;;;13.70;78.30;;;;;;4998608;28;20557;-50
2023/10/23 16:42:13;;;;;;;2.00;1.23;;;13.70;80.20;;;;;;5006485;28;20949;-53
2023/10/23 16:44:41;;;;;;;2.97;0.90;;;13.70;78.40;;;;;;5002467;28;20898;-52
2023/10/23 16:47:22;;;;;;;2.30;1.10;;;13.70;79.20;;;;;;5034810;28;20459;-52
2023/10/23 16:49:52;;;;;;;1.40;1.10;;;13.70;79.10;;;;;;5032338;28;20837;-53
2023/10/23 16:52:21;;;;;;;2.73;1.13;;;13.70;78.40;;;;;;5022071;28;20801;-51
2023/10/23 16:54:50;;;;;;;1.57;1.03;;;13.70;78.40;;;;;;5018723;28;21037;-51
2023/10/23 16:57:19;;;;;;;2.50;1.40;;;13.70;78.40;;;;;;5007601;28;20452;-50
2023/10/23 16:59:48;;;;;;;1.50;1.10;;;13.80;78.40;;;;;;5005990;28;20548;-53
2023/10/23 17:02:16;;;;;;;1.60;1.13;;;13.70;78.40;;;;;;5004599;28;20436;-53
2023/10/23 17:04:46;;;;;;;2.60;1.30;;;13.70;78.50;;;;;;5004660;28;20463;-51
2023/10/23 17:07:16;;;;;;;3.30;1.10;;;13.70;78.60;;;;;;5021950;28;20443;-51
2023/10/23 17:09:45;;;;;;;2.03;1.37;;;13.70;78.90;;;;;;5005273;28;20457;-53
2023/10/23 17:12:15;;;;;;;3.63;1.50;;;13.70;78.80;;;;;;5007169;28;20445;-53
2023/10/23 17:14:45;;;;;;;2.30;1.17;;;13.80;79.50;;;;;;5007472;28;20546;-52
2023/10/23 17:17:13;;;;;;;2.50;1.10;;;13.70;79.10;;;;;;5030857;28;20655;-52
2023/10/23 17:19:43;;;;;;;2.07;1.40;;;13.70;79.20;;;;;;5009584;28;20815;-54
2023/10/23 17:22:11;;;;;;;1.20;0.60;;;13.70;79.60;;;;;;5029074;28;20798;-52
2023/10/23 17:24:39;;;;;;;2.20;1.50;;;13.70;79.40;;;;;;5021197;28;20788;-51
2023/10/23 17:27:08;;;;;;;2.03;1.10;;;13.70;79.20;;;;;;5035465;28;20452;-51
2023/10/23 17:29:38;;;;;;;3.67;1.33;;;13.70;78.70;;;;;;5006578;28;20444;-53
2023/10/23 17:32:09;;;;;;;1.43;1.10;;;13.70;79.20;;;;;;5006503;28;20539;-52
2023/10/23 17:34:39;;;;;;;3.13;1.27;;;13.70;78.90;;;;;;5021940;28;20461;-53
2023/10/23 17:37:07;;;;;;;2.00;1.00;;;13.70;78.60;;;;;;5008715;28;20473;-53
2023/10/23 17:39:36;;;;;;;2.30;1.43;;;13.70;78.40;;;;;;5023996;28;20588;-51
2023/10/23 17:42:05;;;;;;;3.23;1.03;;;13.70;79.00;;;;;;5011303;28;20480;-51
2023/10/23 17:44:33;;;;;;;1.57;0.93;;;13.70;78.70;;;;;;5010019;28;21091;-52
2023/10/23 17:47:03;;;;;;;1.60;1.20;;;13.70;78.80;;;;;;5008717;28;20474;-51
2023/10/23 17:49:31;;;;;;;2.00;1.40;;;13.70;78.90;;;;;;5009866;28;20434;-50
2023/10/23 17:52:00;;;;;;;1.47;1.03;;;13.70;79.10;;;;;;5008229;28;20589;-50
2023/10/23 17:54:28;;;;;;;2.70;1.47;;;13.70;79.00;;;;;;5024269;28;20822;-53
2023/10/23 17:56:56;;;;;;;1.60;1.00;;;13.70;78.90;;;;;;5008072;28;20910;-51
2023/10/23 17:59:24;;;;;;;2.47;1.50;;;13.70;80.30;;;;;;5009157;28;20833;-50
2023/10/23 18:01:53;;;;;;;1.67;1.40;;;13.70;79.30;;;;;;5006488;28;20683;-52
2023/10/23 18:04:23;;;;;;;1.93;1.07;;;13.70;79.60;;;;;;5008250;28;20885;-52
2023/10/23 18:06:51;;;;;;;4.03;1.50;;;13.70;79.40;;;;;;5029446;28;20486;-52
2023/10/23 18:09:19;;;;;;;2.10;1.30;;;13.70;79.50;;;;;;5038391;28;20527;-51
2023/10/23 18:11:47;;;;;;;2.20;1.13;;;13.70;79.10;;;;;;4998976;28;20473;-51
2023/10/23 18:14:16;;;;;;;1.50;1.10;;;13.70;79.50;;;;;;5013399;28;20444;-53
2023/10/23 18:16:44;;;;;;;2.40;1.10;;;13.70;80.30;;;;;;5026153;28;20479;-50
2023/10/23 18:19:13;;;;;;;2.03;1.20;;;13.70;80.30;;;;;;5027949;28;20478;-53
2023/10/23 18:21:45;;;;;;;2.13;1.03;;;13.70;79.80;;;;;;5014080;28;20560;-51
2023/10/23 18:24:15;;;;;;;2.77;1.70;;;13.70;80.00;;;;;;5009641;28;20825;-51
2023/10/23 18:26:43;;;;;;;2.23;1.30;;;13.70;80.30;;;;;;5009945;28;20493;-52
2023/10/23 18:29:12;;;;;;;2.70;1.30;;;13.70;80.40;;;;;;5029289;28;20443;-51
2023/10/23 18:31:44;;;;;;;2.60;1.20;;;13.70;80.50;;;;;;5008429;28;20548;-51
2023/10/23 18:34:13;;;;;;;3.43;1.50;;;13.70;81.00;;;;;;5040841;28;20820;-53
2023/10/23 18:36:41;;;;;;;2.80;1.47;;;13.70;80.80;;;;;;5015317;28;20472;-53
2023/10/23 18:39:10;;;;;;;1.50;1.00;;;13.70;81.00;;;;;;5009555;28;20508;-53
2023/10/23 18:41:39;;;;;;;2.27;1.40;;;13.70;80.60;;;;;;5013341;28;20469;-51
2023/10/23 18:44:07;;;;;;;1.90;1.07;;;13.70;80.70;;;;;;5035326;28;20870;-52
2023/10/23 18:46:35;;;;;;;4.67;1.50;;;13.70;80.80;;;;;;5020131;28;21078;-52
2023/10/23 18:49:04;;;;;;;2.00;1.23;;;13.70;80.80;;;;;;5037902;28;20443;-52
2023/10/23 18:51:32;;;;;;;1.57;1.00;;;13.70;80.80;;;;;;5025765;28;20462;-52
2023/10/23 18:54:00;;;;;;;1.93;1.40;;;13.70;80.60;;;;;;5006368;28;20537;-52
2023/10/23 18:56:34;;;;;;;1.90;1.30;;;13.70;81.10;;;;;;5012713;28;20465;-53
2023/10/23 18:59:02;;;;;;;2.43;1.30;;;13.70;80.90;;;;;;5014749;28;20439;-52
2023/10/23 19:01:31;;;;;;;4.83;1.87;;;13.70;81.00;;;;;;5041059;28;20999;-51
2023/10/23 19:03:59;;;;;;;4.07;1.67;;;13.70;80.90;;;;;;5023266;28;20645;-53
2023/10/23 19:06:29;;;;;;;3.47;1.87;;;13.70;80.40;;;;;;5027058;28;21001;-51
2023/10/23 19:09:02;;;;;;;2.17;1.17;;;13.70;80.70;;;;;;5024756;28;21066;-52
2023/10/23 19:11:30;;;;;;;3.00;1.60;;;13.70;81.00;;;;;;5025565;28;20464;-52
2023/10/23 19:14:00;;;;;;;3.10;1.53;;;13.70;81.00;;;;;;5036369;28;20951;-50
2023/10/23 19:16:29;;;;;;;2.17;1.10;;;13.70;81.10;;;;;;5038643;28;20834;-51
2023/10/23 19:18:57;;;;;;;4.33;1.70;;;13.70;81.30;;;;;;5044721;28;20495;-53
2023/10/23 19:21:26;;;;;;;1.60;1.33;;;13.70;81.20;;;;;;5039151;28;20482;-53
2023/10/23 19:23:55;;;;;;;1.83;1.30;;;13.70;81.10;;;;;;5012683;28;20447;-51
2023/10/23 19:26:24;;;;;;;2.40;1.60;;;13.70;80.80;;;;;;5021463;28;20878;-51
2023/10/23 19:28:52;;;;;;;4.63;1.60;;;13.70;81.40;;;;;;5029003;28;20762;-51
2023/10/23 19:31:23;;;;;;;2.27;1.10;;;13.70;81.40;;;;;;5009247;28;20528;-51
2023/10/23 19:33:52;;;;;;;4.80;1.60;;;13.70;80.90;;;;;;5039045;28;20636;-53
2023/10/23 19:36:24;;;;;;;2.13;1.60;;;13.70;81.10;;;;;;5015737;28;20502;-52
2023/10/23 19:38:53;;;;;;;3.27;1.70;;;13.70;81.60;;;;;;5015087;28;20805;-51
2023/10/23 19:41:31;;;;;;;2.80;1.67;;;13.70;81.60;;;;;;5031327;28;20568;-52
2023/10/23 19:44:00;;;;;;;3.17;1.80;;;13.70;81.80;;;;;;5026815;28;20557;-52
2023/10/23 19:46:30;;;;;;;2.93;1.77;;;13.70;82.00;;;;;;5037400;28;20515;-52
2023/10/23 19:48:59;;;;;;;2.30;1.40;;;13.70;81.90;;;;;;5024593;28;20465;-52
2023/10/23 19:51:30;;;;;;;2.73;1.57;;;13.70;81.60;;;;;;5026532;28;20460;-52
2023/10/23 19:53:59;;;;;;;1.50;1.20;;;13.70;81.50;;;;;;5038142;28;20829;-53
2023/10/23 19:56:28;;;;;;;2.40;1.50;;;13.70;81.40;;;;;;5022598;28;20503;-53
2023/10/23 19:59:00;;;;;;;2.30;1.40;;;13.70;81.80;;;;;;5044390;28;20774;-52
2023/10/23 20:01:30;;;;;;;1.97;1.47;;;13.70;81.70;;;;;;5019306;28;20468;-50
2023/10/23 20:03:59;;;;;;;6.87;1.93;;;13.70;81.90;;;;;;5016674;28;20443;-51
2023/10/23 20:06:28;;;;;;;2.80;2.20;;;13.70;81.70;;;;;;5008858;28;20476;-53
2023/10/23 20:08:56;;;;;;;2.20;1.07;;;13.70;82.10;;;;;;5040149;28;20454;-53
2023/10/23 20:11:24;;;;;;;2.07;1.37;;;13.70;81.80;;;;;;5021054;28;20917;-53
2023/10/23 20:13:53;;;;;;;2.80;1.60;;;13.70;81.00;;;;;;5027376;28;20485;-52
2023/10/23 20:16:22;;;;;;;1.70;1.40;;;13.70;81.60;;;;;;5021470;28;20915;-53
2023/10/23 20:18:52;;;;;;;2.93;1.53;;;13.70;81.50;;;;;;5018265;28;20445;-51
2023/10/23 20:21:20;;;;;;;2.43;1.40;;;13.70;81.50;;;;;;5019964;28;20584;-52
2023/10/23 20:23:48;;;;;;;3.50;1.80;;;13.70;81.90;;;;;;5014383;28;20447;-53
2023/10/23 20:26:17;;;;;;;4.57;2.37;;;13.70;81.90;;;;;;5022935;28;20743;-51
2023/10/23 20:28:45;;;;;;;2.00;1.50;;;13.70;81.60;;;;;;5028555;28;20519;-52
2023/10/23 20:31:15;;;;;;;5.40;1.70;;;13.70;82.10;;;;;;5025167;28;20467;-51
2023/10/23 20:33:43;;;;;;;2.30;1.60;;;13.70;81.50;;;;;;5043475;28;20441;-52
2023/10/23 20:36:12;;;;;;;2.37;1.67;;;13.70;81.70;;;;;;5043523;28;20564;-53
2023/10/23 20:38:41;;;;;;;2.93;1.77;;;13.70;81.40;;;;;;5023914;28;20542;-52
2023/10/23 20:41:15;;;;;;;2.70;1.50;;;13.70;81.60;;;;;;5022786;28;21020;-52
2023/10/23 20:43:45;;;;;;;3.17;1.40;;;13.70;81.70;;;;;;5030305;28;20487;-51
2023/10/23 20:46:14;;;;;;;2.50;1.60;;;13.70;81.50;;;;;;5037102;28;20482;-51
2023/10/23 20:48:42;;;;;;;2.30;1.60;;;13.70;81.50;;;;;;5017653;28;20440;-52
2023/10/23 20:51:13;;;;;;;2.00;1.50;;;13.70;82.00;;;;;;5044262;28;20510;-51
2023/10/23 20:53:42;;;;;;;2.67;1.40;;;13.70;81.90;;;;;;5022918;28;20456;-51
2023/10/23 20:56:10;;;;;;;2.70;1.37;;;13.70;82.10;;;;;;5019566;28;20549;-50
2023/10/23 20:58:38;;;;;;;1.47;1.00;;;13.70;81.60;;;;;;5015028;28;20445;-50
2023/10/23 21:01:07;;;;;;;2.80;1.50;;;13.70;81.10;;;;;;5034393;28;20475;-50
2023/10/23 21:03:36;;;;;;;2.47;1.70;;;13.70;81.10;;;;;;5013910;28;20869;-53
2023/10/23 21:06:05;;;;;;;2.33;2.10;;;13.70;81.70;;;;;;5023277;28;21012;-51
2023/10/23 21:08:39;;;;;;;2.63;1.80;;;13.70;82.00;;;;;;5021138;28;20440;-50
2023/10/23 21:11:07;;;;;;;3.30;1.40;;;13.70;82.00;;;;;;5018542;28;20478;-53
2023/10/23 21:13:36;;;;;;;2.60;1.40;;;13.70;81.70;;;;;;5025907;28;20963;-53
2023/10/23 21:16:07;;;;;;;2.37;1.57;;;13.70;82.00;;;;;;5020463;28;20517;-52
2023/10/23 21:18:35;;;;;;;2.80;1.30;;;13.70;81.50;;;;;;5020580;28;20519;-50
2023/10/23 21:21:04;;;;;;;2.90;1.93;;;13.70;81.50;;;;;;5019391;28;20478;-51
2023/10/23 21:23:33;;;;;;;2.77;1.50;;;13.70;82.30;;;;;;5041547;28;20970;-50
2023/10/23 21:26:06;;;;;;;2.90;1.33;;;13.70;82.80;;;;;;5020797;28;21001;-52
2023/10/23 21:28:34;;;;;;;1.70;1.20;;;13.70;82.90;;;;;;5021000;28;20445;-51
2023/10/23 21:31:03;;;;;;;1.60;0.90;;;13.70;83.30;;;;;;5018078;28;20480;-53
2023/10/23 21:33:31;;;;;;;2.20;1.63;;;13.70;83.20;;;;;;5027237;28;20527;-52
2023/10/23 21:36:00;;;;;;;1.77;1.23;;;13.70;83.40;;;;;;5023055;28;20471;-53
2023/10/23 21:38:28;;;;;;;2.37;1.17;;;13.60;82.90;;;;;;5022335;28;20960;-51
2023/10/23 21:40:56;;;;;;;3.60;1.63;;;13.60;82.60;;;;;;5021394;28;20477;-53
2023/10/23 21:43:26;;;;;;;2.80;1.23;;;13.60;82.60;;;;;;5020813;28;20435;-51
2023/10/23 21:45:54;;;;;;;2.70;1.30;;;13.60;82.50;;;;;;5015201;28;20903;-51
2023/10/23 21:48:42;;;;;;;2.23;1.50;;;13.60;82.30;;;;;;5018135;28;20433;-52
2023/10/23 21:51:10;;;;;;;2.80;1.17;;;13.60;82.80;;;;;;5016749;28;20467;-52
2023/10/23 21:53:39;;;;;;;2.70;1.40;;;13.60;82.40;;;;;;5036747;28;20448;-53
2023/10/23 21:56:09;;;;;;;1.93;1.40;;;13.60;82.60;;;;;;5040801;28;20573;-53
2023/10/23 21:58:40;;;;;;;3.20;1.23;;;13.60;83.10;;;;;;5039789;28;20455;-53
2023/10/23 22:01:29;;;;;;;2.00;1.37;;;13.60;82.90;;;;;;5017309;28;20591;-52
2023/10/23 22:03:58;;;;;;;2.03;1.20;;;13.60;82.90;;;;;;5040470;28;21003;-53
2023/10/23 22:06:27;;;;;;;1.77;1.20;;;13.60;82.60;;;;;;5025234;28;21062;-52
2023/10/23 22:08:56;;;;;;;6.27;1.33;;;13.60;82.60;;;;;;5026189;28;20535;-52
2023/10/23 22:11:25;;;;;;;3.60;1.97;;;13.60;82.80;;;;;;5045897;28;20554;-51
2023/10/23 22:13:56;;;;;;;2.40;1.60;;;13.60;82.90;;;;;;5028932;28;20962;-51
2023/10/23 22:16:24;;;;;;;1.73;1.20;;;13.60;83.00;;;;;;5047062;28;20480;-53
2023/10/23 22:18:53;;;;;;;2.67;1.80;;;13.60;83.20;;;;;;5018003;28;20781;-53
2023/10/23 22:21:21;;;;;;;2.40;1.40;;;13.60;83.20;;;;;;5028081;28;20486;-51
2023/10/23 22:23:49;;;;;;;2.60;1.37;;;13.60;83.10;;;;;;5023039;28;20441;-53
2023/10/23 22:26:17;;;;;;;3.70;1.10;;;13.60;82.90;;;;;;5028656;28;20467;-50
2023/10/23 22:28:45;;;;;;;4.57;1.37;;;13.60;83.30;;;;;;5037334;28;20523;-53
2023/10/23 22:31:15;;;;;;;1.50;1.10;;;13.60;83.30;;;;;;5030531;28;20537;-52
2023/10/23 22:33:43;;;;;;;2.60;1.20;;;13.60;83.70;;;;;;5028771;28;20448;-52
2023/10/23 22:36:12;;;;;;;1.90;1.53;;;13.60;82.80;;;;;;5025432;28;20464;-53
2023/10/23 22:38:40;;;;;;;2.90;1.00;;;13.60;83.20;;;;;;5038834;28;20829;-52
2023/10/23 22:41:09;;;;;;;1.87;1.33;;;13.60;82.90;;;;;;5043129;28;20799;-51
2023/10/23 22:43:37;;;;;;;2.67;1.60;;;13.60;83.30;;;;;;5023398;28;20556;-53
2023/10/23 22:46:05;;;;;;;2.30;1.30;;;13.60;83.40;;;;;;5030947;28;20517;-50
2023/10/23 22:48:35;;;;;;;1.77;1.43;;;13.60;83.40;;;;;;5025626;28;20501;-53
2023/10/23 22:51:04;;;;;;;1.90;1.30;;;13.60;83.20;;;;;;5030394;28;20495;-52
2023/10/23 22:53:35;;;;;;;3.20;1.70;;;13.60;83.40;;;;;;5026328;28;20451;-51
2023/10/23 22:56:07;;;;;;;3.53;1.37;;;13.60;83.80;;;;;;5027855;28;20555;-51
2023/10/23 22:58:39;;;;;;;2.03;1.53;;;13.60;83.50;;;;;;5030528;28;20588;-51
2023/10/23 23:01:08;;;;;;;2.17;1.30;;;13.60;84.00;;;;;;5023835;28;20560;-53
2023/10/23 23:03:39;;;;;;;2.40;1.67;;;13.60;84.20;;;;;;5023152;28;20516;-51
2023/10/23 23:06:08;;;;;;;2.40;1.40;;;13.60;83.80;;;;;;5030231;28;20532;-52
2023/10/23 23:08:40;;;;;;;3.10;1.30;;;13.60;83.90;;;;;;5039879;28;21041;-51
2023/10/23 23:11:10;;;;;;;3.23;1.43;;;13.60;84.00;;;;;;5025658;28;20472;-51
2023/10/23 23:13:39;;;;;;;2.60;1.67;;;13.60;84.00;;;;;;5026301;28;20427;-53
2023/10/23 23:16:08;;;;;;;2.60;1.50;;;13.60;84.40;;;;;;5019891;28;20486;-52
2023/10/23 23:18:39;;;;;;;2.30;1.53;;;13.60;84.10;;;;;;5018045;28;20856;-52
2023/10/23 23:21:10;;;;;;;3.83;1.30;;;13.60;84.30;;;;;;5045927;28;20490;-51
2023/10/23 23:23:38;;;;;;;2.03;1.40;;;13.60;84.30;;;;;;5023748;28;20543;-52
2023/10/23 23:26:06;;;;;;;2.37;1.60;;;13.60;84.90;;;;;;5045577;28;20917;-52
2023/10/23 23:28:35;;;;;;;2.10;1.47;;;13.60;84.50;;;;;;5026391;28;20451;-50
2023/10/23 23:31:04;;;;;;;2.23;1.33;;;13.60;84.70;;;;;;5039978;28;20488;-53
2023/10/23 23:33:33;;;;;;;2.70;1.40;;;13.60;84.50;;;;;;5028111;28;20466;-50
2023/10/23 23:36:02;;;;;;;1.70;1.33;;;13.60;84.20;;;;;;5018565;28;20475;-50
2023/10/23 23:38:30;;;;;;;3.40;1.77;;;13.60;84.10;;;;;;5020303;28;20449;-53
2023/10/23 23:40:59;;;;;;;3.57;1.17;;;13.60;84.60;;;;;;5017020;28;20445;-51
2023/10/23 23:43:27;;;;;;;2.33;1.50;;;13.60;84.70;;;;;;5028137;28;20475;-52
2023/10/23 23:45:57;;;;;;;5.00;1.80;;;13.60;84.70;;;;;;5039935;28;20487;-53
2023/10/23 23:48:25;;;;;;;4.03;1.60;;;13.60;85.10;;;;;;5024163;28;20430;-53
2023/10/23 23:50:53;;;;;;;3.00;1.67;;;13.60;85.20;;;;;;5041450;28;20478;-53
2023/10/23 23:53:23;;;;;;;3.03;1.60;;;13.60;84.70;;;;;;5006836;28;20465;-51
2023/10/23 23:55:52;;;;;;;2.83;1.13;;;13.60;85.00;;;;;;5024614;28;20465;-52
2023/10/23 23:58:23;;;;;;;2.77;1.30;;;13.60;84.70;;;;;;5020263;28;20448;-52
